ETD204 OMAA-VABB
Flight info
| Callsign | ETD204 |
|---|---|
| Flight time | N/A |
| Altitude | 39000 |
| Route | KANIP N318 GEVED N881 AMBOS M700 PARAR N571 SUGID KETOR2A |
| Aircraft | A388/J-SADE2E3FGHIJ3J4J5M1RWXY/LB1D1 |
Departure
| Time | N/A |
|---|---|
| Airport | Zayed International Airport (OMAA) |
Arrival
| Time | 2026-04-30 09:14 |
|---|---|
| Airport | Chhatrapati Shivaji Maharaj International Airport (VABB) |
| Time | Latitude | Longitude | Altitude | Speed | Heading |
|---|---|---|---|---|---|
| 2026-04-30 08:22 | 20.27885 | 67.81920 | 38861 ft | 511 kts | 117° |
| 2026-04-30 08:23 | 20.26300 | 67.85302 | 38859 ft | 511 kts | 117° |
| 2026-04-30 08:23 | 20.23124 | 67.92067 | 38857 ft | 510 kts | 117° |
| 2026-04-30 08:24 | 20.19950 | 67.98817 | 38853 ft | 510 kts | 117° |
| 2026-04-30 08:24 | 20.16776 | 68.05559 | 38847 ft | 509 kts | 117° |
| 2026-04-30 08:25 | 20.14140 | 68.11151 | 38846 ft | 508 kts | 117° |
| 2026-04-30 08:25 | 20.10970 | 68.17869 | 38841 ft | 508 kts | 117° |
| 2026-04-30 08:26 | 20.07792 | 68.24576 | 38815 ft | 507 kts | 117° |
| 2026-04-30 08:26 | 20.04621 | 68.31272 | 38833 ft | 507 kts | 117° |
| 2026-04-30 08:27 | 20.01453 | 68.37985 | 38837 ft | 508 kts | 117° |
| 2026-04-30 08:27 | 19.98274 | 68.44694 | 38841 ft | 508 kts | 117° |
| 2026-04-30 08:28 | 19.95087 | 68.51407 | 38848 ft | 509 kts | 117° |
| 2026-04-30 08:28 | 19.91898 | 68.58125 | 38839 ft | 509 kts | 117° |
| 2026-04-30 08:29 | 19.88695 | 68.64839 | 38843 ft | 510 kts | 117° |
| 2026-04-30 08:29 | 19.85494 | 68.71565 | 38852 ft | 510 kts | 117° |
| 2026-04-30 08:30 | 19.82284 | 68.78296 | 38853 ft | 511 kts | 117° |
| 2026-04-30 08:30 | 19.79076 | 68.85014 | 38865 ft | 510 kts | 117° |
| 2026-04-30 08:31 | 19.75858 | 68.91721 | 38850 ft | 509 kts | 117° |
| 2026-04-30 08:31 | 19.72664 | 68.98415 | 38842 ft | 508 kts | 117° |
| 2026-04-30 08:32 | 19.69460 | 69.05102 | 38849 ft | 508 kts | 117° |
| 2026-04-30 08:32 | 19.66252 | 69.11789 | 38847 ft | 508 kts | 117° |
| 2026-04-30 08:33 | 19.63041 | 69.18473 | 38852 ft | 508 kts | 117° |
| 2026-04-30 08:33 | 19.59817 | 69.25148 | 38841 ft | 507 kts | 116° |
| 2026-04-30 08:34 | 19.56625 | 69.31819 | 38840 ft | 508 kts | 117° |
| 2026-04-30 08:34 | 19.53415 | 69.38488 | 38852 ft | 508 kts | 117° |
| 2026-04-30 08:35 | 19.50221 | 69.45177 | 38856 ft | 509 kts | 117° |
| 2026-04-30 08:35 | 19.47026 | 69.51865 | 38858 ft | 509 kts | 117° |
| 2026-04-30 08:36 | 19.43827 | 69.58548 | 38847 ft | 509 kts | 117° |
| 2026-04-30 08:36 | 19.40621 | 69.65232 | 38854 ft | 509 kts | 117° |
| 2026-04-30 08:37 | 19.37411 | 69.71921 | 38852 ft | 509 kts | 117° |
| 2026-04-30 08:37 | 19.34199 | 69.78606 | 38852 ft | 510 kts | 117° |
| 2026-04-30 08:38 | 19.30981 | 69.85294 | 38858 ft | 510 kts | 117° |
| 2026-04-30 08:38 | 19.27764 | 69.91974 | 38862 ft | 509 kts | 117° |
| 2026-04-30 08:39 | 19.24548 | 69.98644 | 38857 ft | 509 kts | 117° |
| 2026-04-30 08:39 | 19.21332 | 70.05306 | 38855 ft | 508 kts | 117° |
| 2026-04-30 08:40 | 19.18116 | 70.11961 | 38849 ft | 508 kts | 117° |
| 2026-04-30 08:40 | 19.14902 | 70.18604 | 38847 ft | 507 kts | 117° |
| 2026-04-30 08:41 | 19.12004 | 70.25409 | 38845 ft | 507 kts | 111° |
| 2026-04-30 08:41 | 19.09424 | 70.32354 | 38847 ft | 508 kts | 111° |
| 2026-04-30 08:42 | 19.06823 | 70.39296 | 38851 ft | 508 kts | 111° |
| 2026-04-30 08:42 | 19.04216 | 70.46240 | 38860 ft | 508 kts | 111° |
| 2026-04-30 08:43 | 19.01610 | 70.53177 | 38861 ft | 508 kts | 111° |
| 2026-04-30 08:43 | 18.99661 | 70.60303 | 38852 ft | 506 kts | 94° |
| 2026-04-30 08:44 | 18.99491 | 70.67726 | 38847 ft | 505 kts | 90° |
| 2026-04-30 08:44 | 18.99371 | 70.75145 | 38855 ft | 505 kts | 90° |
| 2026-04-30 08:45 | 18.99220 | 70.82567 | 38855 ft | 505 kts | 90° |
| 2026-04-30 08:45 | 18.99057 | 70.89993 | 38852 ft | 506 kts | 90° |
| 2026-04-30 08:46 | 18.98892 | 70.97418 | 38858 ft | 506 kts | 90° |
| 2026-04-30 08:46 | 18.98724 | 71.04847 | 38849 ft | 506 kts | 90° |
| 2026-04-30 08:47 | 18.98553 | 71.12271 | 38848 ft | 506 kts | 90° |
| 2026-04-30 08:47 | 18.98379 | 71.19699 | 38849 ft | 506 kts | 90° |
| 2026-04-30 08:48 | 18.98203 | 71.27123 | 38846 ft | 506 kts | 90° |
| 2026-04-30 08:48 | 18.98023 | 71.34548 | 38849 ft | 505 kts | 90° |
| 2026-04-30 08:49 | 18.97841 | 71.41966 | 38853 ft | 505 kts | 90° |
| 2026-04-30 08:49 | 18.97656 | 71.49341 | 38849 ft | 505 kts | 90° |
| 2026-04-30 08:50 | 18.97468 | 71.56760 | 38856 ft | 505 kts | 90° |
| 2026-04-30 08:50 | 18.97274 | 71.64239 | 38854 ft | 506 kts | 90° |
| 2026-04-30 08:51 | 18.97082 | 71.71612 | 38849 ft | 506 kts | 90° |
| 2026-04-30 08:51 | 18.96884 | 71.79015 | 38487 ft | 503 kts | 90° |
| 2026-04-30 08:51 | 18.96781 | 71.82768 | 37538 ft | 506 kts | 90° |
| 2026-04-30 08:52 | 18.96678 | 71.86504 | 36451 ft | 510 kts | 90° |
| 2026-04-30 08:52 | 18.96575 | 71.90244 | 35601 ft | 508 kts | 90° |
| 2026-04-30 08:52 | 18.96473 | 71.93906 | 34760 ft | 510 kts | 89° |
| 2026-04-30 08:52 | 18.96366 | 71.97732 | 33912 ft | 513 kts | 89° |
| 2026-04-30 08:53 | 18.96261 | 72.01505 | 32936 ft | 515 kts | 89° |
| 2026-04-30 08:53 | 18.96154 | 72.05291 | 32090 ft | 515 kts | 89° |
| 2026-04-30 08:53 | 18.96046 | 72.09057 | 31432 ft | 510 kts | 89° |
| 2026-04-30 08:53 | 18.95939 | 72.12781 | 30815 ft | 505 kts | 89° |
| 2026-04-30 08:54 | 18.95832 | 72.16467 | 30204 ft | 500 kts | 88° |
| 2026-04-30 08:54 | 18.95726 | 72.20120 | 29532 ft | 495 kts | 88° |
| 2026-04-30 08:54 | 18.95621 | 72.23737 | 28829 ft | 490 kts | 88° |
| 2026-04-30 08:54 | 18.95516 | 72.27311 | 28148 ft | 485 kts | 88° |
| 2026-04-30 08:55 | 18.95412 | 72.30860 | 27468 ft | 480 kts | 88° |
| 2026-04-30 08:55 | 18.95309 | 72.34321 | 26823 ft | 476 kts | 88° |
| 2026-04-30 08:55 | 18.95205 | 72.37794 | 26180 ft | 471 kts | 88° |
| 2026-04-30 08:55 | 18.95101 | 72.41287 | 25543 ft | 467 kts | 89° |
| 2026-04-30 08:56 | 18.94999 | 72.44651 | 24932 ft | 462 kts | 89° |
| 2026-04-30 08:56 | 18.94896 | 72.48030 | 24334 ft | 458 kts | 89° |
| 2026-04-30 08:56 | 18.94793 | 72.51374 | 23742 ft | 454 kts | 88° |
| 2026-04-30 08:56 | 18.94691 | 72.54688 | 23104 ft | 449 kts | 89° |
| 2026-04-30 08:57 | 18.94590 | 72.57966 | 22434 ft | 444 kts | 89° |
| 2026-04-30 08:57 | 18.94490 | 72.61209 | 21784 ft | 439 kts | 89° |
| 2026-04-30 08:57 | 18.94390 | 72.64413 | 21183 ft | 434 kts | 89° |
| 2026-04-30 08:57 | 18.94291 | 72.67582 | 20605 ft | 429 kts | 89° |
| 2026-04-30 08:58 | 18.94192 | 72.70707 | 20036 ft | 424 kts | 90° |
| 2026-04-30 08:58 | 18.94094 | 72.73797 | 19473 ft | 419 kts | 90° |
| 2026-04-30 08:58 | 18.93997 | 72.76854 | 18929 ft | 414 kts | 90° |
| 2026-04-30 08:58 | 18.93899 | 72.79880 | 18397 ft | 410 kts | 90° |
| 2026-04-30 08:59 | 18.93803 | 72.82870 | 17812 ft | 406 kts | 90° |
| 2026-04-30 08:59 | 18.93706 | 72.85835 | 17206 ft | 402 kts | 90° |
| 2026-04-30 08:59 | 18.93609 | 72.88760 | 16597 ft | 395 kts | 90° |
| 2026-04-30 08:59 | 18.93515 | 72.91631 | 15985 ft | 388 kts | 91° |
| 2026-04-30 09:00 | 18.93422 | 72.94451 | 15419 ft | 380 kts | 90° |
| 2026-04-30 09:00 | 18.93332 | 72.97209 | 14845 ft | 372 kts | 90° |
| 2026-04-30 09:00 | 18.93245 | 72.99908 | 14298 ft | 365 kts | 90° |
| 2026-04-30 09:00 | 18.93151 | 73.02563 | 13754 ft | 359 kts | 90° |
| 2026-04-30 09:01 | 18.93067 | 73.05176 | 13158 ft | 354 kts | 91° |
| 2026-04-30 09:01 | 18.92984 | 73.07675 | 12588 ft | 349 kts | 91° |
| 2026-04-30 09:01 | 18.92892 | 73.10223 | 12006 ft | 346 kts | 91° |
| 2026-04-30 09:01 | 18.92805 | 73.12745 | 11423 ft | 341 kts | 91° |
| 2026-04-30 09:02 | 18.92806 | 73.17627 | 10710 ft | 319 kts | 86° |
| 2026-04-30 09:02 | 18.92912 | 73.19921 | 10461 ft | 307 kts | 86° |
| 2026-04-30 09:02 | 18.93014 | 73.22142 | 10141 ft | 299 kts | 86° |
| 2026-04-30 09:03 | 18.93109 | 73.24304 | 9823 ft | 291 kts | 86° |
| 2026-04-30 09:03 | 18.93199 | 73.26407 | 9466 ft | 282 kts | 86° |
| 2026-04-30 09:03 | 18.93284 | 73.28451 | 9006 ft | 278 kts | 86° |
| 2026-04-30 09:03 | 18.93644 | 73.30434 | 8480 ft | 274 kts | 61° |
| 2026-04-30 09:04 | 18.94761 | 73.31995 | 8000 ft | 263 kts | 31° |
| 2026-04-30 09:04 | 18.96357 | 73.32755 | 7629 ft | 244 kts | 2° |
| 2026-04-30 09:04 | 18.98030 | 73.32931 | 7336 ft | 241 kts | 359° |
| 2026-04-30 09:04 | 18.99694 | 73.32918 | 7000 ft | 236 kts | 350° |
| 2026-04-30 09:05 | 19.01256 | 73.32561 | 6761 ft | 224 kts | 331° |
| 2026-04-30 09:05 | 19.02633 | 73.31827 | 6633 ft | 221 kts | 329° |
| 2026-04-30 09:05 | 19.03833 | 73.30865 | 6472 ft | 216 kts | 310° |
| 2026-04-30 09:05 | 19.04802 | 73.29638 | 6341 ft | 217 kts | 304° |
| 2026-04-30 09:06 | 19.05331 | 73.28747 | 6254 ft | 216 kts | 300° |
| 2026-04-30 09:06 | 19.05817 | 73.27262 | 6104 ft | 215 kts | 281° |
| 2026-04-30 09:06 | 19.06057 | 73.25669 | 5928 ft | 221 kts | 279° |
| 2026-04-30 09:06 | 19.06303 | 73.24120 | 5646 ft | 214 kts | 280° |
| 2026-04-30 09:07 | 19.06546 | 73.22567 | 5314 ft | 211 kts | 281° |
| 2026-04-30 09:07 | 19.06793 | 73.21054 | 5018 ft | 209 kts | 281° |
| 2026-04-30 09:07 | 19.07035 | 73.19547 | 4728 ft | 207 kts | 281° |
| 2026-04-30 09:07 | 19.07278 | 73.18053 | 4455 ft | 201 kts | 281° |
| 2026-04-30 09:08 | 19.07520 | 73.16601 | 4160 ft | 199 kts | 281° |
| 2026-04-30 09:08 | 19.07743 | 73.15149 | 3874 ft | 204 kts | 280° |
| 2026-04-30 09:08 | 19.07980 | 73.13662 | 3605 ft | 204 kts | 280° |
| 2026-04-30 09:08 | 19.08235 | 73.12199 | 3369 ft | 203 kts | 279° |
| 2026-04-30 09:09 | 19.08484 | 73.10761 | 3197 ft | 195 kts | 279° |
| 2026-04-30 09:09 | 19.08717 | 73.09355 | 3028 ft | 193 kts | 279° |
| 2026-04-30 09:09 | 19.08952 | 73.07957 | 2996 ft | 194 kts | 279° |
| 2026-04-30 09:09 | 19.09096 | 73.06566 | 3004 ft | 192 kts | 272° |
| 2026-04-30 09:10 | 19.09117 | 73.05173 | 2979 ft | 184 kts | 271° |
| 2026-04-30 09:10 | 19.09109 | 73.03850 | 2978 ft | 181 kts | 269° |
| 2026-04-30 09:10 | 19.09096 | 73.02539 | 2709 ft | 176 kts | 268° |
| 2026-04-30 09:10 | 19.09070 | 73.01238 | 2461 ft | 175 kts | 267° |
| 2026-04-30 09:11 | 19.09061 | 72.99942 | 2231 ft | 174 kts | 269° |
| 2026-04-30 09:11 | 19.09029 | 72.98738 | 2010 ft | 156 kts | 266° |
| 2026-04-30 09:11 | 19.09036 | 72.97652 | 1826 ft | 139 kts | 268° |
| 2026-04-30 09:11 | 19.09001 | 72.96672 | 1655 ft | 130 kts | 266° |
| 2026-04-30 09:12 | 19.08994 | 72.95715 | 1503 ft | 130 kts | 268° |
| 2026-04-30 09:12 | 19.08974 | 72.94785 | 1324 ft | 128 kts | 266° |
| 2026-04-30 09:12 | 19.08971 | 72.93835 | 1164 ft | 130 kts | 269° |
| 2026-04-30 09:12 | 19.08955 | 72.92882 | 994 ft | 130 kts | 264° |
| 2026-04-30 09:13 | 19.08946 | 72.91926 | 834 ft | 130 kts | 267° |
| 2026-04-30 09:13 | 19.08914 | 72.90978 | 670 ft | 128 kts | 265° |
| 2026-04-30 09:13 | 19.08909 | 72.90036 | 514 ft | 129 kts | 266° |
| 2026-04-30 09:13 | 19.08902 | 72.89091 | 381 ft | 129 kts | 264° |
| 2026-04-30 09:14 | 19.08880 | 72.88146 | 204 ft | 128 kts | 264° |
| 2026-04-30 09:14 | 19.08875 | 72.87212 | 63 ft | 122 kts | 267° |
| 2026-04-30 09:14 | 19.08862 | 72.86453 | 53 ft | 84 kts | 268° |
| 2026-04-30 09:14 | 19.08857 | 72.85969 | 52 ft | 38 kts | 270° |
| 2026-04-30 09:15 | 19.08859 | 72.85751 | 53 ft | 21 kts | 274° |
| 2026-04-30 09:15 | 19.08895 | 72.85612 | 51 ft | 19 kts | 294° |
| 2026-04-30 09:15 | 19.08940 | 72.85510 | 49 ft | 13 kts | 297° |
| 2026-04-30 09:15 | 19.08986 | 72.85465 | 49 ft | 8 kts | 357° |
| 2026-04-30 09:16 | 19.09021 | 72.85494 | 50 ft | 9 kts | 76° |
| 2026-04-30 09:16 | 19.09027 | 72.85579 | 48 ft | 15 kts | 89° |
| 2026-04-30 09:16 | 19.09029 | 72.85707 | 54 ft | 20 kts | 89° |
| 2026-04-30 09:16 | 19.09031 | 72.85873 | 54 ft | 24 kts | 89° |
| 2026-04-30 09:17 | 19.09034 | 72.86060 | 53 ft | 23 kts | 89° |
| 2026-04-30 09:17 | 19.09035 | 72.86196 | 53 ft | 20 kts | 89° |
| 2026-04-30 09:17 | 19.09043 | 72.86309 | 47 ft | 15 kts | 65° |
| 2026-04-30 09:17 | 19.09119 | 72.86410 | 49 ft | 21 kts | 49° |
| 2026-04-30 09:18 | 19.09220 | 72.86530 | 48 ft | 20 kts | 48° |
| 2026-04-30 09:18 | 19.09325 | 72.86654 | 50 ft | 25 kts | 49° |
| 2026-04-30 09:18 | 19.09403 | 72.86748 | 48 ft | 9 kts | 49° |
| 2026-04-30 09:18 | 19.09426 | 72.86813 | 50 ft | 12 kts | 99° |
| 2026-04-30 09:19 | 19.09404 | 72.86903 | 50 ft | 11 kts | 104° |
| 2026-04-30 09:19 | 19.09392 | 72.86957 | 54 ft | 6 kts | 104° |
| 2026-04-30 09:19 | 19.09389 | 72.86970 | 52 ft | 1 kts | 104° |
| 2026-04-30 09:19 | 19.09386 | 72.86982 | 51 ft | 1 kts | 104° |
| 2026-04-30 09:20 | 19.09386 | 72.86983 | 51 ft | 0 kts | 104° |